aviador You're here:

SCVD Decoded Metar

VALDIVIA in CHILE
Report Time2017-12-18 09:00:00
UTC Time2017-12-18 09:04:20
Flight Rules vfr VFR
Wind220° at 05 kt
W.Decomp.*RWY 17: 3.7 kt HW 3.3 kt RCW
W.Rank220° ranks 20
Current wind is below 220° avg. (5.4)
Visibility8000 m
Phenomena:N/A
Clouds:N/A
Expected CloudBase > 1,200 ft AGL from Temp-Dew spread
CeilingNone
Temp08°C (ISA -7)
Dew Point05°C (82% RH)
AAT5.1°C
QNH1018 hPa
Density Alt-833 ft
Elevation46 ft
Report Wrong Elevation
Raw Report
METAR SCVD 180900Z AUTO 22005KT 8000 NCD 08/05 Q1018=

Extra information for SCVD:More info

Metar Taf Metar & Taf Last 4 Metars F.Rules Stats Wind Profile Meteogram Temp Stats Airport Information Weather charts Add Link Nearby VenuesMetar ALERT Operation Metar Decoded Social comments